createdAt,value
2019-02-09T00:00:16.821Z,1002.30
2019-02-09T00:01:16.790Z,1002.30
2019-02-09T00:02:16.756Z,1002.26
2019-02-09T00:03:16.721Z,1002.22
2019-02-09T00:04:16.689Z,1002.26
2019-02-09T00:05:16.657Z,1002.18
2019-02-09T00:06:16.623Z,1002.15
2019-02-09T00:07:16.591Z,1002.14
2019-02-09T00:08:16.558Z,1002.13
2019-02-09T00:09:16.528Z,1002.09
2019-02-09T00:10:16.492Z,1002.01
2019-02-09T00:11:16.461Z,1002.00
2019-02-09T00:12:16.430Z,1002.00
2019-02-09T00:13:16.395Z,1001.90
2019-02-09T00:14:16.362Z,1001.80
2019-02-09T00:15:16.329Z,1001.87
2019-02-09T00:16:16.298Z,1001.84
2019-02-09T00:17:16.264Z,1001.83
2019-02-09T00:18:16.232Z,1001.86
2019-02-09T00:19:16.197Z,1001.79
2019-02-09T00:20:16.166Z,1001.78
2019-02-09T00:21:16.133Z,1001.80
2019-02-09T00:22:16.101Z,1001.81
2019-02-09T00:23:16.066Z,1001.78
2019-02-09T00:24:16.033Z,1001.78
2019-02-09T00:25:16.001Z,1001.73
2019-02-09T00:26:15.968Z,1001.69
2019-02-09T00:27:15.934Z,1001.64
2019-02-09T00:28:15.902Z,1001.68
2019-02-09T00:29:15.870Z,1001.64
2019-02-09T00:30:15.837Z,1001.65
2019-02-09T00:31:15.803Z,1001.55
2019-02-09T00:32:15.772Z,1001.55
2019-02-09T00:33:15.738Z,1001.52
2019-02-09T00:34:15.705Z,1001.56
2019-02-09T00:35:15.673Z,1001.53
2019-02-09T00:36:15.642Z,1001.55
2019-02-09T00:37:15.609Z,1001.53
2019-02-09T00:38:15.574Z,1001.53
2019-02-09T00:39:15.540Z,1001.53
2019-02-09T00:40:15.509Z,1001.45
2019-02-09T00:41:15.475Z,1001.48
2019-02-09T00:42:15.442Z,1001.47
2019-02-09T00:43:15.409Z,1001.43
2019-02-09T00:44:15.376Z,1001.41
2019-02-09T00:45:15.343Z,1001.43
2019-02-09T00:46:15.309Z,1001.41
2019-02-09T00:47:15.278Z,1001.41
2019-02-09T00:48:15.244Z,1001.40
2019-02-09T00:49:15.211Z,1001.34
2019-02-09T00:50:15.177Z,1001.26
2019-02-09T00:51:15.145Z,1001.24
2019-02-09T00:52:15.115Z,1001.25
2019-02-09T00:53:15.093Z,1001.22
2019-02-09T00:54:15.046Z,1001.26
2019-02-09T00:55:15.019Z,1001.24
2019-02-09T00:56:14.981Z,1001.22
2019-02-09T00:57:14.947Z,1001.19
2019-02-09T00:58:14.914Z,1001.17
2019-02-09T00:59:14.883Z,1001.19
2019-02-09T01:00:14.851Z,1001.16
2019-02-09T01:01:14.817Z,1001.14
2019-02-09T01:02:14.785Z,1001.12
2019-02-09T01:03:14.753Z,1001.16
2019-02-09T01:04:14.719Z,1001.13
2019-02-09T01:05:14.686Z,1001.07
2019-02-09T01:06:14.652Z,1001.04
2019-02-09T01:07:14.619Z,1001.04
2019-02-09T01:08:14.588Z,1001.03
2019-02-09T01:09:14.555Z,1001.01
2019-02-09T01:10:14.522Z,1001.02
2019-02-09T01:11:14.488Z,1001.02
2019-02-09T01:12:14.454Z,1001.04
2019-02-09T01:13:14.423Z,1000.99
2019-02-09T01:14:14.391Z,1000.99
2019-02-09T01:15:14.357Z,1001.01
2019-02-09T01:16:14.326Z,1001.05
2019-02-09T01:17:14.292Z,1000.99
2019-02-09T01:18:14.261Z,1000.96
2019-02-09T01:19:14.228Z,1000.92
2019-02-09T01:20:14.194Z,1000.96
2019-02-09T01:21:14.162Z,1000.91
2019-02-09T01:22:14.129Z,1000.91
2019-02-09T01:23:14.096Z,1000.97
2019-02-09T01:24:14.064Z,1000.88
2019-02-09T01:25:14.032Z,1000.88
2019-02-09T01:26:13.999Z,1000.89
2019-02-09T01:27:13.964Z,1000.83
2019-02-09T01:28:13.932Z,1000.84
2019-02-09T01:29:13.899Z,1000.81
2019-02-09T01:30:13.866Z,1000.75
2019-02-09T01:31:13.833Z,1000.80
2019-02-09T01:32:13.801Z,1000.79
2019-02-09T01:33:13.770Z,1000.77
2019-02-09T01:34:13.738Z,1000.73
2019-02-09T01:35:13.703Z,1000.72
2019-02-09T01:36:13.671Z,1000.69
2019-02-09T01:37:13.638Z,1000.74
2019-02-09T01:38:13.605Z,1000.66
2019-02-09T01:39:13.570Z,1000.61
2019-02-09T01:40:13.537Z,1000.59
2019-02-09T01:41:13.507Z,1000.59
2019-02-09T01:42:13.477Z,1000.67
2019-02-09T01:43:13.441Z,1000.59
2019-02-09T01:44:13.407Z,1000.53
2019-02-09T01:45:13.375Z,1000.62
2019-02-09T01:46:13.342Z,1000.53
2019-02-09T01:47:13.308Z,1000.53
2019-02-09T01:48:13.279Z,1000.48
2019-02-09T01:49:13.244Z,1000.46
2019-02-09T01:50:13.210Z,1000.45
2019-02-09T01:51:13.178Z,1000.38
2019-02-09T01:52:13.145Z,1000.39
2019-02-09T01:53:13.112Z,1000.41
2019-02-09T01:54:13.079Z,1000.39
2019-02-09T01:55:13.045Z,1000.40
2019-02-09T01:56:13.013Z,1000.35
2019-02-09T01:57:12.982Z,1000.37
2019-02-09T01:58:12.947Z,1000.44
2019-02-09T01:59:12.916Z,1000.28
2019-02-09T02:00:12.883Z,1000.33
2019-02-09T02:01:12.850Z,1000.28
2019-02-09T02:02:12.816Z,1000.25
2019-02-09T02:03:12.783Z,1000.22
2019-02-09T02:04:12.751Z,1000.22
2019-02-09T02:05:12.719Z,1000.12
2019-02-09T02:06:12.685Z,1000.13
2019-02-09T02:07:12.653Z,1000.18
2019-02-09T02:08:12.629Z,1000.14
2019-02-09T02:09:12.589Z,1000.18
2019-02-09T02:10:12.553Z,1000.11
2019-02-09T02:11:12.521Z,1000.10
2019-02-09T02:12:12.488Z,1000.02
2019-02-09T02:13:12.456Z,1000.05
2019-02-09T02:14:12.422Z,1000.00
2019-02-09T02:15:12.390Z,1000.03
2019-02-09T02:16:12.357Z,999.95
2019-02-09T02:17:12.325Z,999.95
2019-02-09T02:18:12.291Z,999.92
2019-02-09T02:19:12.258Z,999.88
2019-02-09T02:20:12.225Z,999.88
2019-02-09T02:21:12.193Z,999.87
2019-02-09T02:22:12.159Z,999.79
2019-02-09T02:23:12.131Z,999.82
2019-02-09T02:24:12.094Z,999.79
2019-02-09T02:25:12.062Z,999.82
2019-02-09T02:26:12.030Z,999.75
2019-02-09T02:27:12.001Z,999.73
2019-02-09T02:28:11.963Z,999.74
2019-02-09T02:29:11.937Z,999.67
2019-02-09T02:30:21.670Z,999.68
2019-02-09T02:31:11.867Z,999.62
2019-02-09T02:32:11.835Z,999.62
2019-02-09T02:33:11.801Z,999.59
2019-02-09T02:34:11.768Z,999.52
2019-02-09T02:35:11.734Z,999.55
2019-02-09T02:36:11.705Z,999.49
2019-02-09T02:37:11.669Z,999.45
2019-02-09T02:38:11.637Z,999.44
2019-02-09T02:39:11.604Z,999.51
2019-02-09T02:40:11.571Z,999.49
2019-02-09T02:41:11.545Z,999.43
2019-02-09T02:42:11.505Z,999.41
2019-02-09T02:43:11.475Z,999.37
2019-02-09T02:44:11.442Z,999.36
2019-02-09T02:45:11.411Z,999.36
2019-02-09T02:46:11.373Z,999.36
2019-02-09T02:47:11.342Z,999.28
2019-02-09T02:48:11.311Z,999.30
2019-02-09T02:49:11.277Z,999.30
2019-02-09T02:50:11.243Z,999.27
2019-02-09T02:51:11.210Z,999.23
2019-02-09T02:52:11.179Z,999.23
2019-02-09T02:53:11.147Z,999.18
2019-02-09T02:54:11.118Z,999.21
2019-02-09T02:55:11.082Z,999.28
2019-02-09T02:56:11.048Z,999.15
2019-02-09T02:57:11.016Z,999.11
2019-02-09T02:58:10.984Z,999.13
2019-02-09T02:59:10.953Z,999.14
2019-02-09T03:00:10.919Z,999.16
2019-02-09T03:01:10.885Z,999.04
2019-02-09T03:02:10.860Z,999.15
2019-02-09T03:03:10.821Z,999.12
2019-02-09T03:04:10.788Z,999.09
2019-02-09T03:05:10.756Z,999.10
2019-02-09T03:06:10.725Z,999.08
2019-02-09T03:07:10.689Z,999.05
2019-02-09T03:08:10.658Z,999.07
2019-02-09T03:09:10.624Z,999.07
2019-02-09T03:10:10.590Z,999.01
2019-02-09T03:11:10.560Z,999.02
2019-02-09T03:12:10.527Z,999.01
2019-02-09T03:13:10.494Z,998.99
2019-02-09T03:14:10.461Z,998.95
2019-02-09T03:15:10.429Z,998.99
2019-02-09T03:16:10.398Z,998.98
2019-02-09T03:17:10.364Z,998.92
2019-02-09T03:18:10.333Z,998.94
2019-02-09T03:19:10.297Z,998.98
2019-02-09T03:20:10.265Z,998.99
2019-02-09T03:21:10.231Z,998.98
2019-02-09T03:22:10.202Z,998.96
2019-02-09T03:23:10.168Z,998.98
2019-02-09T03:24:10.135Z,998.96
2019-02-09T03:25:10.103Z,998.92
2019-02-09T03:26:10.068Z,998.95
2019-02-09T03:27:10.037Z,998.91
2019-02-09T03:28:10.004Z,998.94
2019-02-09T03:29:09.971Z,998.90
2019-02-09T03:30:09.942Z,998.91
2019-02-09T03:31:09.908Z,998.92
2019-02-09T03:32:10.997Z,998.90
2019-02-09T03:33:09.886Z,998.90
2019-02-09T03:34:09.813Z,998.92
2019-02-09T03:35:09.775Z,998.91
2019-02-09T03:36:09.745Z,998.86
2019-02-09T03:37:09.711Z,998.89
2019-02-09T03:38:09.680Z,998.90
2019-02-09T03:39:09.648Z,998.88
2019-02-09T03:40:09.613Z,998.86
2019-02-09T03:41:09.581Z,998.88
2019-02-09T03:42:09.547Z,998.83
2019-02-09T03:43:09.514Z,998.82
2019-02-09T03:44:09.489Z,998.80
2019-02-09T03:45:09.451Z,998.76
2019-02-09T03:46:09.421Z,998.75
2019-02-09T03:47:09.384Z,998.77
2019-02-09T03:48:09.353Z,998.81
2019-02-09T03:49:09.321Z,998.69
2019-02-09T03:50:09.288Z,998.69
2019-02-09T03:51:09.255Z,998.73
2019-02-09T03:52:09.222Z,998.73
2019-02-09T03:53:09.194Z,998.72
2019-02-09T03:54:09.158Z,998.71
2019-02-09T03:55:09.126Z,998.68
2019-02-09T03:56:09.169Z,998.70
2019-02-09T03:57:09.061Z,998.66
2019-02-09T03:58:09.028Z,998.70
2019-02-09T03:59:08.994Z,998.68
2019-02-09T04:00:08.965Z,998.67
2019-02-09T04:01:08.934Z,998.65
2019-02-09T04:02:08.897Z,998.60
2019-02-09T04:03:08.864Z,998.63
2019-02-09T04:04:08.834Z,998.61
2019-02-09T04:05:08.799Z,998.67
2019-02-09T04:06:08.767Z,998.69
2019-02-09T04:07:08.734Z,998.64
2019-02-09T04:08:08.702Z,998.63
2019-02-09T04:09:08.669Z,998.61
2019-02-09T04:10:08.637Z,998.59
2019-02-09T04:11:08.605Z,998.58
2019-02-09T04:12:08.573Z,998.57
2019-02-09T04:13:08.544Z,998.59
2019-02-09T04:14:08.507Z,998.61
2019-02-09T04:15:08.474Z,998.60
2019-02-09T04:16:08.443Z,998.56
2019-02-09T04:17:08.411Z,998.53
2019-02-09T04:18:08.375Z,998.52
2019-02-09T04:19:08.345Z,998.49
2019-02-09T04:20:08.313Z,998.52
2019-02-09T04:21:08.281Z,998.49
2019-02-09T04:22:08.247Z,998.49
2019-02-09T04:23:08.215Z,998.44
2019-02-09T04:24:08.185Z,998.44
2019-02-09T04:25:08.155Z,998.40
2019-02-09T04:26:08.118Z,998.50
2019-02-09T04:27:08.092Z,998.49
2019-02-09T04:28:08.054Z,998.45
2019-02-09T04:29:08.027Z,998.47
2019-02-09T04:30:07.989Z,998.39
2019-02-09T04:31:07.968Z,998.38
2019-02-09T04:32:07.922Z,998.44
2019-02-09T04:33:07.890Z,998.46
2019-02-09T04:34:07.861Z,998.46
2019-02-09T04:35:07.824Z,998.46
2019-02-09T04:36:07.795Z,998.44
2019-02-09T04:37:07.761Z,998.51
2019-02-09T04:38:07.726Z,998.43
2019-02-09T04:39:07.696Z,998.41
2019-02-09T04:40:07.664Z,998.40
2019-02-09T04:41:07.632Z,998.43
2019-02-09T04:42:07.597Z,998.43
2019-02-09T04:43:07.566Z,998.41
2019-02-09T04:44:07.532Z,998.49
2019-02-09T04:45:07.501Z,998.42
2019-02-09T04:46:07.467Z,998.41
2019-02-09T04:47:07.436Z,998.47
2019-02-09T04:48:07.403Z,998.47
2019-02-09T04:49:07.370Z,998.47
2019-02-09T04:50:07.336Z,998.43
2019-02-09T04:51:07.305Z,998.46
2019-02-09T04:52:07.271Z,998.46
2019-02-09T04:53:07.243Z,998.43
2019-02-09T04:54:07.207Z,998.49
2019-02-09T04:55:07.184Z,998.43
2019-02-09T04:56:07.142Z,998.47
2019-02-09T04:57:07.108Z,998.41
2019-02-09T04:58:07.080Z,998.38
2019-02-09T04:59:07.046Z,998.31
2019-02-09T05:00:07.012Z,998.31
2019-02-09T05:01:13.831Z,998.29
2019-02-09T05:02:06.948Z,998.25
2019-02-09T05:03:06.914Z,998.25
2019-02-09T05:04:06.881Z,998.27
2019-02-09T05:05:06.851Z,998.24
2019-02-09T05:06:06.826Z,998.24
2019-02-09T05:07:06.785Z,998.28
2019-02-09T05:08:06.751Z,998.26
2019-02-09T05:09:06.718Z,998.26
2019-02-09T05:10:06.684Z,998.23
2019-02-09T05:11:06.654Z,998.29
2019-02-09T05:12:06.622Z,998.25
2019-02-09T05:13:06.589Z,998.23
2019-02-09T05:14:06.556Z,998.31
2019-02-09T05:15:06.522Z,998.34
2019-02-09T05:16:06.495Z,998.28
2019-02-09T05:17:06.465Z,998.34
2019-02-09T05:18:06.431Z,998.28
2019-02-09T05:19:06.393Z,998.32
2019-02-09T05:20:06.360Z,998.36
2019-02-09T05:21:06.326Z,998.36
2019-02-09T05:22:06.297Z,998.30
2019-02-09T05:23:06.262Z,998.29
2019-02-09T05:24:06.230Z,998.24
2019-02-09T05:25:06.199Z,998.28
2019-02-09T05:26:06.164Z,998.25
2019-02-09T05:27:06.131Z,998.24
2019-02-09T05:28:06.103Z,998.27
2019-02-09T05:29:06.067Z,998.28
2019-02-09T05:30:06.034Z,998.22
2019-02-09T05:31:06.001Z,998.20
2019-02-09T05:32:05.971Z,998.26
2019-02-09T05:33:05.936Z,998.22
2019-02-09T05:34:05.905Z,998.26
2019-02-09T05:35:05.872Z,998.26
2019-02-09T05:36:05.838Z,998.21
2019-02-09T05:37:05.807Z,998.30
2019-02-09T05:38:05.775Z,998.26
2019-02-09T05:39:05.740Z,998.26
2019-02-09T05:40:05.710Z,998.32
2019-02-09T05:41:05.677Z,998.28
2019-02-09T05:42:05.642Z,998.32
2019-02-09T05:43:05.611Z,998.29
2019-02-09T05:44:05.579Z,998.27
2019-02-09T05:45:05.549Z,998.32
2019-02-09T05:46:05.514Z,998.44
2019-02-09T05:47:05.493Z,998.29
2019-02-09T05:48:05.452Z,998.29
2019-02-09T05:49:05.416Z,998.30
2019-02-09T05:50:05.383Z,998.32
2019-02-09T05:51:05.349Z,998.25
2019-02-09T05:52:05.318Z,998.25
2019-02-09T05:53:05.284Z,998.28
2019-02-09T05:54:05.251Z,998.25
2019-02-09T05:55:05.220Z,998.15
2019-02-09T05:56:05.186Z,998.22
2019-02-09T05:57:05.154Z,998.23
2019-02-09T05:58:05.123Z,998.20
2019-02-09T05:59:05.094Z,998.18
2019-02-09T06:00:05.057Z,998.23
2019-02-09T06:01:05.025Z,998.19
2019-02-09T06:02:04.994Z,998.22
2019-02-09T06:03:04.990Z,998.20
2019-02-09T06:04:04.927Z,998.28
2019-02-09T06:05:04.894Z,998.16
2019-02-09T06:06:04.860Z,998.23
2019-02-09T06:07:04.842Z,998.24
2019-02-09T06:08:04.798Z,998.26
2019-02-09T06:09:04.765Z,998.29
2019-02-09T06:10:04.734Z,998.29
2019-02-09T06:11:04.697Z,998.29
2019-02-09T06:12:04.664Z,998.27
2019-02-09T06:13:04.634Z,998.30
2019-02-09T06:14:04.598Z,998.22
2019-02-09T06:15:04.566Z,998.28
2019-02-09T06:16:04.536Z,998.33
2019-02-09T06:17:04.503Z,998.39
2019-02-09T06:18:04.468Z,998.29
2019-02-09T06:19:04.436Z,998.23
2019-02-09T06:20:04.403Z,998.31
2019-02-09T06:21:04.371Z,998.33
2019-02-09T06:22:04.339Z,998.28
2019-02-09T06:23:04.309Z,998.33
2019-02-09T06:24:04.274Z,998.31
2019-02-09T06:25:04.241Z,998.29
2019-02-09T06:26:04.208Z,998.33
2019-02-09T06:27:04.175Z,998.33
2019-02-09T06:28:04.142Z,998.38
2019-02-09T06:29:04.109Z,998.42
2019-02-09T06:30:04.076Z,998.46
2019-02-09T06:31:04.043Z,998.38
2019-02-09T06:32:04.012Z,998.36
2019-02-09T06:33:03.979Z,998.35
2019-02-09T06:34:03.945Z,998.42
2019-02-09T06:35:03.912Z,998.38
2019-02-09T06:36:03.881Z,998.39
2019-02-09T06:37:03.848Z,998.38
2019-02-09T06:38:03.814Z,998.31
2019-02-09T06:39:03.781Z,998.36
2019-02-09T06:40:03.749Z,998.31
2019-02-09T06:41:03.716Z,998.31
2019-02-09T06:42:03.682Z,998.38
2019-02-09T06:43:03.906Z,998.29
2019-02-09T06:44:03.618Z,998.30
2019-02-09T06:45:03.585Z,998.31
2019-02-09T06:46:03.553Z,998.33
2019-02-09T06:47:03.519Z,998.32
2019-02-09T06:48:03.491Z,998.40
2019-02-09T06:49:03.458Z,998.38
2019-02-09T06:50:03.420Z,998.43
2019-02-09T06:51:03.387Z,998.38
2019-02-09T06:52:03.355Z,998.43
2019-02-09T06:53:03.321Z,998.45
2019-02-09T06:54:03.288Z,998.55
2019-02-09T06:55:03.255Z,998.49
2019-02-09T06:56:03.224Z,998.54
2019-02-09T06:57:03.190Z,998.47
2019-02-09T06:58:03.157Z,998.64
2019-02-09T06:59:03.122Z,998.63
2019-02-09T07:00:03.090Z,998.71
2019-02-09T07:01:03.067Z,998.65
2019-02-09T07:02:03.025Z,998.62
2019-02-09T07:03:02.991Z,998.64
2019-02-09T07:04:02.960Z,998.67
2019-02-09T07:05:02.925Z,998.59
2019-02-09T07:06:02.895Z,998.60
2019-02-09T07:07:02.861Z,998.57
2019-02-09T07:08:02.830Z,998.63
2019-02-09T07:09:02.795Z,998.59
2019-02-09T07:10:02.760Z,998.57
2019-02-09T07:11:02.726Z,998.54
2019-02-09T07:12:02.693Z,998.64
2019-02-09T07:13:02.663Z,998.62
2019-02-09T07:14:02.627Z,998.73
2019-02-09T07:15:02.597Z,998.69
2019-02-09T07:16:02.563Z,998.73
2019-02-09T07:17:02.529Z,998.73
2019-02-09T07:18:02.496Z,998.73
2019-02-09T07:19:02.463Z,998.80
2019-02-09T07:20:02.430Z,998.73
2019-02-09T07:21:02.397Z,998.80
2019-02-09T07:22:02.366Z,998.76
2019-02-09T07:23:02.331Z,998.73
2019-02-09T07:24:02.297Z,998.71
2019-02-09T07:25:02.265Z,998.75
2019-02-09T07:26:02.232Z,998.79
2019-02-09T07:27:02.198Z,998.72
2019-02-09T07:28:02.166Z,998.73
2019-02-09T07:29:02.136Z,998.81
2019-02-09T07:30:02.099Z,998.62
2019-02-09T07:31:02.067Z,998.72
2019-02-09T07:32:02.034Z,998.77
2019-02-09T07:33:02.000Z,998.71
2019-02-09T07:34:01.968Z,998.76
2019-02-09T07:35:01.935Z,998.81
2019-02-09T07:36:01.912Z,998.80
2019-02-09T07:37:01.873Z,998.88
2019-02-09T07:38:01.835Z,998.82
2019-02-09T07:39:01.801Z,998.83
2019-02-09T07:40:01.771Z,998.83
2019-02-09T07:41:01.736Z,998.82
2019-02-09T07:42:01.704Z,998.74
2019-02-09T07:43:01.670Z,998.77
2019-02-09T07:44:01.638Z,998.79
2019-02-09T07:45:01.607Z,998.85
2019-02-09T07:46:01.571Z,998.83
2019-02-09T07:47:01.538Z,998.80
2019-02-09T07:48:01.507Z,998.86
2019-02-09T07:49:01.473Z,998.90
2019-02-09T07:50:01.439Z,998.82
2019-02-09T07:51:01.405Z,998.91
2019-02-09T07:52:01.374Z,998.79
2019-02-09T07:53:01.342Z,998.82
2019-02-09T07:54:01.309Z,998.86
2019-02-09T07:55:01.276Z,998.81
2019-02-09T07:56:01.244Z,998.80
2019-02-09T07:57:01.209Z,998.82
2019-02-09T07:58:01.177Z,998.83
2019-02-09T07:59:01.144Z,998.84
2019-02-09T08:00:01.114Z,998.77
2019-02-09T08:01:01.081Z,998.82
2019-02-09T08:02:04.702Z,998.86
2019-02-09T08:03:01.014Z,998.84
2019-02-09T08:04:00.982Z,998.84
2019-02-09T08:05:00.950Z,998.82
2019-02-09T08:06:00.918Z,998.85
2019-02-09T08:07:00.885Z,998.90
2019-02-09T08:08:00.859Z,998.84
2019-02-09T08:09:00.820Z,998.84
2019-02-09T08:10:00.791Z,998.83
2019-02-09T08:11:08.803Z,998.89
2019-02-09T08:12:00.726Z,998.90
2019-02-09T08:13:00.691Z,998.88
2019-02-09T08:14:00.660Z,998.85
2019-02-09T08:15:00.625Z,998.90
2019-02-09T08:16:00.594Z,998.89
2019-02-09T08:17:00.562Z,998.90
2019-02-09T08:18:00.530Z,998.90
2019-02-09T08:19:00.496Z,999.01
2019-02-09T08:20:00.464Z,998.98
2019-02-09T08:21:00.432Z,999.03
2019-02-09T08:22:00.425Z,999.00
2019-02-09T08:23:00.366Z,998.97
2019-02-09T08:24:00.335Z,998.92
2019-02-09T08:25:00.303Z,999.08
2019-02-09T08:26:00.270Z,999.04
2019-02-09T08:27:00.239Z,999.07
2019-02-09T08:28:00.207Z,999.08
2019-02-09T08:29:00.173Z,999.09
2019-02-09T08:30:00.224Z,999.15
2019-02-09T08:31:00.109Z,999.16
2019-02-09T08:32:00.077Z,999.13
2019-02-09T08:33:00.048Z,999.17
2019-02-09T08:34:00.012Z,999.29
2019-02-09T08:34:59.981Z,999.16
2019-02-09T08:35:59.946Z,999.18
2019-02-09T08:36:59.915Z,999.24
2019-02-09T08:37:59.882Z,999.28
2019-02-09T08:38:59.849Z,999.19
2019-02-09T08:39:59.820Z,999.29
2019-02-09T08:40:59.786Z,999.21
2019-02-09T08:41:59.752Z,999.23
2019-02-09T08:42:59.719Z,999.28
2019-02-09T08:43:59.689Z,999.20
2019-02-09T08:44:59.656Z,999.35
2019-02-09T08:45:59.623Z,999.26
2019-02-09T08:46:59.593Z,999.33
2019-02-09T08:47:59.559Z,999.38
2019-02-09T08:48:59.536Z,999.19
2019-02-09T08:49:59.497Z,999.19
2019-02-09T08:50:59.465Z,999.24
2019-02-09T08:51:59.432Z,999.27
2019-02-09T08:52:59.402Z,999.16
2019-02-09T08:53:59.368Z,999.12
2019-02-09T08:54:59.338Z,999.21
2019-02-09T08:55:59.305Z,999.25
2019-02-09T08:56:59.277Z,999.22
2019-02-09T08:57:59.256Z,999.24
2019-02-09T08:58:59.211Z,999.30
2019-02-09T08:59:59.180Z,999.33
2019-02-09T09:00:59.150Z,999.23
2019-02-09T09:01:59.115Z,999.24
2019-02-09T09:02:59.097Z,999.27
2019-02-09T09:03:59.054Z,999.25
2019-02-09T09:04:59.026Z,999.29
2019-02-09T09:05:58.990Z,999.20
2019-02-09T09:06:58.957Z,999.23
2019-02-09T09:07:58.926Z,999.18
2019-02-09T09:08:58.894Z,999.12
2019-02-09T09:09:58.862Z,999.24
2019-02-09T09:10:58.831Z,999.15
2019-02-09T09:11:58.800Z,999.19
2019-02-09T09:12:58.772Z,999.20
2019-02-09T09:13:58.737Z,999.25
2019-02-09T09:14:58.707Z,999.29
2019-02-09T09:15:58.677Z,999.23
2019-02-09T09:16:58.644Z,999.26
2019-02-09T09:17:58.612Z,999.27
2019-02-09T09:18:58.585Z,999.26
2019-02-09T09:19:58.553Z,999.22
2019-02-09T09:20:58.522Z,999.25
2019-02-09T09:21:58.491Z,999.16
2019-02-09T09:22:58.464Z,999.33
2019-02-09T09:23:58.431Z,999.33
2019-02-09T09:24:58.401Z,999.31
2019-02-09T09:25:58.371Z,999.28
2019-02-09T09:26:58.343Z,999.31
2019-02-09T09:27:58.310Z,999.38
2019-02-09T09:28:58.286Z,999.30
2019-02-09T09:29:58.248Z,999.28
2019-02-09T09:30:58.223Z,999.35
2019-02-09T09:31:58.191Z,999.41
2019-02-09T09:32:58.158Z,999.47
2019-02-09T09:33:58.129Z,999.45
2019-02-09T09:34:58.099Z,999.46
2019-02-09T09:35:58.068Z,999.43
2019-02-09T09:36:58.040Z,999.53
2019-02-09T09:37:58.009Z,999.56
2019-02-09T09:38:57.979Z,999.59
2019-02-09T09:39:57.950Z,999.44
2019-02-09T09:40:57.925Z,999.45
2019-02-09T09:41:57.891Z,999.44
2019-02-09T09:42:57.863Z,999.46
2019-02-09T09:43:57.835Z,999.52
2019-02-09T09:44:57.806Z,999.42
2019-02-09T09:45:57.775Z,999.54
2019-02-09T09:46:57.750Z,999.53
2019-02-09T09:47:57.721Z,999.52
2019-02-09T09:48:57.688Z,999.55
2019-02-09T09:49:57.658Z,999.53
2019-02-09T09:50:57.631Z,999.53
2019-02-09T09:51:57.605Z,999.58
2019-02-09T09:52:57.574Z,999.62
2019-02-09T09:53:57.542Z,999.52
2019-02-09T09:54:57.510Z,999.63
2019-02-09T09:55:57.482Z,999.58
2019-02-09T09:56:57.456Z,999.60
2019-02-09T09:57:57.424Z,999.69
2019-02-09T09:58:57.393Z,999.63
2019-02-09T09:59:57.363Z,999.57
2019-02-09T10:00:57.334Z,999.64
2019-02-09T10:01:57.302Z,999.66
2019-02-09T10:02:57.281Z,999.70
2019-02-09T10:03:57.247Z,999.70
2019-02-09T10:04:57.215Z,999.77
2019-02-09T10:05:57.184Z,999.76
2019-02-09T10:06:57.153Z,999.68
2019-02-09T10:07:57.125Z,999.62
2019-02-09T10:08:57.094Z,999.70
2019-02-09T10:09:57.063Z,999.68
2019-02-09T10:10:57.036Z,999.72
2019-02-09T10:11:57.006Z,999.71
2019-02-09T10:12:56.973Z,999.63
2019-02-09T10:13:56.944Z,999.64
2019-02-09T10:14:56.912Z,999.71
2019-02-09T10:15:56.884Z,999.61
2019-02-09T10:16:56.855Z,999.62
2019-02-09T10:17:56.822Z,999.67
2019-02-09T10:18:56.793Z,999.67
2019-02-09T10:19:56.764Z,999.65
2019-02-09T10:20:56.732Z,999.54
2019-02-09T10:21:56.701Z,999.71
2019-02-09T10:22:56.672Z,999.70
2019-02-09T10:23:56.651Z,999.75
2019-02-09T10:24:56.612Z,999.68
2019-02-09T10:25:56.580Z,999.71
2019-02-09T10:26:56.551Z,999.72
2019-02-09T10:27:56.521Z,999.71
2019-02-09T10:28:56.495Z,999.52
2019-02-09T10:29:56.461Z,999.73
2019-02-09T10:30:56.432Z,999.73
2019-02-09T10:31:56.401Z,999.54
2019-02-09T10:32:56.373Z,999.66
2019-02-09T10:33:56.345Z,999.75
2019-02-09T10:34:56.313Z,999.77
2019-02-09T10:35:56.283Z,999.65
2019-02-09T10:36:56.256Z,999.75
2019-02-09T10:37:56.226Z,999.74
2019-02-09T10:38:56.196Z,999.66
2019-02-09T10:39:56.168Z,999.74
2019-02-09T10:40:56.138Z,999.81
2019-02-09T10:41:56.109Z,999.71
2019-02-09T10:42:56.079Z,999.74
2019-02-09T10:43:56.053Z,999.66
2019-02-09T10:44:56.025Z,999.74
2019-02-09T10:45:55.994Z,999.68
2019-02-09T10:46:55.964Z,999.64
2019-02-09T10:47:55.936Z,999.68
2019-02-09T10:48:55.907Z,999.72
2019-02-09T10:49:55.881Z,999.70
2019-02-09T10:50:55.849Z,999.67
2019-02-09T10:51:55.819Z,999.57
2019-02-09T10:52:55.792Z,999.65
2019-02-09T10:53:55.762Z,999.69
2019-02-09T10:54:55.734Z,999.64
2019-02-09T10:55:55.709Z,999.72
2019-02-09T10:56:55.679Z,999.85
2019-02-09T10:57:55.652Z,999.64
2019-02-09T10:58:55.621Z,999.71
2019-02-09T10:59:55.592Z,999.72
2019-02-09T11:00:55.563Z,999.70
2019-02-09T11:01:55.535Z,999.68
2019-02-09T11:02:55.938Z,999.49
2019-02-09T11:03:55.478Z,999.68
2019-02-09T11:04:55.450Z,999.67
2019-02-09T11:05:55.424Z,999.71
2019-02-09T11:06:55.395Z,999.72
2019-02-09T11:07:55.365Z,999.69
2019-02-09T11:08:55.334Z,999.70
2019-02-09T11:09:55.302Z,999.71
2019-02-09T11:10:55.273Z,999.74
2019-02-09T11:11:55.245Z,999.73
2019-02-09T11:12:55.216Z,999.76
2019-02-09T11:13:55.187Z,999.70
2019-02-09T11:14:55.156Z,999.71
2019-02-09T11:15:55.129Z,999.71
2019-02-09T11:16:55.099Z,999.69
2019-02-09T11:17:55.069Z,999.69
2019-02-09T11:18:55.040Z,999.71
2019-02-09T11:19:55.012Z,999.62
2019-02-09T11:20:54.983Z,999.73
2019-02-09T11:21:54.953Z,999.72
2019-02-09T11:22:54.924Z,999.78
2019-02-09T11:23:54.897Z,999.70
2019-02-09T11:24:54.866Z,999.79
2019-02-09T11:25:54.837Z,999.82
2019-02-09T11:26:54.807Z,999.86
2019-02-09T11:27:54.779Z,999.81
2019-02-09T11:28:54.754Z,999.83
2019-02-09T11:29:54.721Z,999.92
2019-02-09T11:30:54.692Z,999.87
2019-02-09T11:31:54.665Z,999.54
2019-02-09T11:33:01.682Z,999.76
2019-02-09T11:33:54.605Z,999.68
2019-02-09T11:34:54.577Z,999.58
2019-02-09T11:35:54.547Z,999.84
2019-02-09T11:36:54.522Z,999.86
2019-02-09T11:37:54.489Z,999.77
2019-02-09T11:38:54.462Z,1000.05
2019-02-09T11:39:54.432Z,999.82
2019-02-09T11:40:54.404Z,999.78
2019-02-09T11:41:54.378Z,999.70
2019-02-09T11:42:54.349Z,999.81
2019-02-09T11:43:54.319Z,999.72
2019-02-09T11:44:54.289Z,999.72
2019-02-09T11:45:54.264Z,999.87
2019-02-09T11:46:54.231Z,999.91
2019-02-09T11:47:54.203Z,999.72
2019-02-09T11:48:54.176Z,999.75
2019-02-09T11:49:54.145Z,999.72
2019-02-09T11:50:54.117Z,1000.03
2019-02-09T11:51:54.088Z,999.82
2019-02-09T11:52:54.062Z,999.79
2019-02-09T11:53:54.033Z,999.83
2019-02-09T11:54:54.004Z,999.83
2019-02-09T11:55:53.974Z,999.82
2019-02-09T11:56:53.947Z,999.83
2019-02-09T11:57:53.916Z,999.75
2019-02-09T11:58:53.889Z,999.81
2019-02-09T11:59:53.860Z,999.93
2019-02-09T12:00:53.832Z,999.81
2019-02-09T12:01:53.837Z,999.77
2019-02-09T12:02:53.773Z,999.79
2019-02-09T12:03:53.744Z,999.93
2019-02-09T12:04:53.718Z,999.76
2019-02-09T12:05:53.691Z,999.81
2019-02-09T12:06:53.659Z,999.81
2019-02-09T12:07:53.630Z,999.73
2019-02-09T12:08:53.603Z,999.86
2019-02-09T12:09:53.572Z,999.77
2019-02-09T12:10:53.544Z,999.70
2019-02-09T12:11:53.517Z,999.78
2019-02-09T12:12:53.486Z,999.67
2019-02-09T12:13:55.374Z,999.81
2019-02-09T12:14:53.428Z,999.73
2019-02-09T12:15:53.400Z,999.77
2019-02-09T12:16:53.371Z,999.83
2019-02-09T12:17:53.341Z,999.80
2019-02-09T12:18:53.316Z,999.87
2019-02-09T12:19:53.284Z,999.75
2019-02-09T12:20:53.255Z,999.92
2019-02-09T12:21:53.226Z,999.70
2019-02-09T12:22:53.197Z,999.79
2019-02-09T12:23:53.169Z,999.78